createdAt,value
2023-03-27T00:10:46.037Z,995.58
2023-03-27T00:21:46.446Z,995.58
2023-03-27T00:32:43.121Z,995.58
2023-03-27T00:43:44.613Z,995.58
2023-03-27T00:54:33.086Z,995.58
2023-03-27T01:05:34.899Z,995.58
2023-03-27T01:16:25.704Z,995.58
2023-03-27T01:27:28.037Z,994.54
2023-03-27T01:38:30.459Z,994.54
2023-03-27T01:49:31.646Z,994.54
2023-03-27T02:00:51.098Z,993.49
2023-03-27T02:11:36.048Z,993.49
2023-03-27T02:22:39.213Z,993.49
2023-03-27T02:33:40.350Z,993.49
2023-03-27T02:44:46.813Z,993.49
2023-03-27T02:55:44.633Z,993.49
2023-03-27T03:06:47.455Z,993.49
2023-03-27T03:17:43.312Z,993.49
2023-03-27T03:29:01.393Z,993.49
2023-03-27T03:39:47.536Z,993.49
2023-03-27T03:50:51.891Z,993.49
2023-03-27T04:01:54.921Z,994.54
2023-03-27T04:12:58.618Z,994.54
2023-03-27T04:24:04.280Z,994.54
2023-03-27T04:35:03.684Z,994.54
2023-03-27T04:46:06.068Z,994.54
2023-03-27T04:57:08.245Z,994.54
2023-03-27T05:08:12.748Z,994.54
2023-03-27T05:19:15.844Z,994.54
2023-03-27T05:30:14.678Z,994.54
2023-03-27T05:41:15.644Z,994.54
2023-03-27T05:52:09.368Z,995.58
2023-03-27T06:03:08.489Z,995.58
2023-03-27T06:14:02.077Z,995.58
2023-03-27T06:25:01.401Z,995.58
2023-03-27T06:35:55.629Z,995.58
2023-03-27T06:46:43.085Z,995.58
2023-03-27T06:57:41.593Z,995.58
2023-03-27T07:08:41.612Z,995.58
2023-03-27T07:19:43.112Z,995.58
2023-03-27T07:30:44.587Z,996.63
2023-03-27T07:41:42.500Z,996.63
2023-03-27T07:52:41.172Z,996.63
2023-03-27T08:03:37.892Z,996.63
2023-03-27T08:14:33.980Z,995.58
2023-03-27T08:25:32.963Z,996.63
2023-03-27T08:36:17.913Z,996.63
2023-03-27T08:47:10.450Z,996.63
2023-03-27T08:58:10.613Z,996.63
2023-03-27T09:09:09.782Z,996.63
2023-03-27T09:20:08.445Z,996.63
2023-03-27T09:30:57.302Z,996.63
2023-03-27T09:41:54.566Z,996.63
2023-03-27T09:52:54.822Z,996.63
2023-03-27T10:03:53.299Z,996.63
2023-03-27T10:14:53.099Z,997.68
2023-03-27T10:25:50.982Z,997.68
2023-03-27T10:36:49.994Z,998.72
2023-03-27T10:47:50.611Z,998.72
2023-03-27T10:58:49.655Z,999.77
2023-03-27T11:09:49.413Z,999.77
2023-03-27T11:20:48.924Z,999.77
2023-03-27T11:31:49.744Z,999.77
2023-03-27T11:42:49.480Z,999.77
2023-03-27T11:53:49.138Z,999.77
2023-03-27T12:04:25.641Z,1000.81
2023-03-27T12:15:17.618Z,1000.81
2023-03-27T12:26:17.377Z,1000.81
2023-03-27T12:37:16.416Z,1001.86
2023-03-27T12:48:13.969Z,1001.86
2023-03-27T12:59:13.047Z,1001.86
2023-03-27T13:10:12.252Z,1001.86
2023-03-27T13:21:05.445Z,1001.86
2023-03-27T13:32:00.584Z,1001.86
2023-03-27T13:42:57.193Z,1002.90
2023-03-27T13:53:46.491Z,1002.90
2023-03-27T14:04:44.137Z,1002.90
2023-03-27T14:15:40.285Z,1003.95
2023-03-27T14:26:37.607Z,1003.95
2023-03-27T14:37:40.002Z,1003.95
2023-03-27T14:48:38.260Z,1003.95
2023-03-27T14:59:36.960Z,1003.95
2023-03-27T15:10:33.187Z,1003.95
2023-03-27T15:21:29.726Z,1005.00
2023-03-27T15:32:26.763Z,1005.00
2023-03-27T15:43:20.438Z,1005.00
2023-03-27T15:54:13.031Z,1005.00
2023-03-27T16:05:11.780Z,1006.04
2023-03-27T16:16:08.627Z,1006.04
2023-03-27T16:27:07.278Z,1006.04
2023-03-27T16:38:06.393Z,1006.04
2023-03-27T16:49:05.581Z,1007.09
2023-03-27T17:00:04.936Z,1007.09
2023-03-27T17:11:05.201Z,1007.09
2023-03-27T17:21:59.158Z,1007.09
2023-03-27T17:32:56.982Z,1008.13
2023-03-27T17:43:57.108Z,1008.13
2023-03-27T17:54:56.048Z,1009.18
2023-03-27T18:05:52.269Z,1009.18
2023-03-27T18:16:50.784Z,1009.18
2023-03-27T18:27:45.001Z,1009.18
2023-03-27T18:38:46.007Z,1010.23
2023-03-27T18:49:46.690Z,1010.23
2023-03-27T19:00:46.399Z,1010.23
2023-03-27T19:11:42.656Z,1010.23
2023-03-27T19:22:42.319Z,1010.23
2023-03-27T19:33:27.218Z,1010.23
2023-03-27T19:44:13.876Z,1010.23
2023-03-27T19:55:04.983Z,1010.23
2023-03-27T20:06:07.425Z,1010.23
2023-03-27T20:17:02.722Z,1011.27
2023-03-27T20:27:57.038Z,1011.27
2023-03-27T20:38:52.137Z,1011.27
2023-03-27T20:49:50.275Z,1011.27
2023-03-27T21:00:50.526Z,1011.27
2023-03-27T21:11:50.228Z,1011.27
2023-03-27T21:22:52.872Z,1011.27
2023-03-27T21:33:49.721Z,1011.27
2023-03-27T21:44:56.565Z,1011.27
2023-03-27T21:55:51.471Z,1011.27
2023-03-27T22:06:47.547Z,1011.27
2023-03-27T22:17:47.818Z,1011.27
2023-03-27T22:28:50.856Z,1011.27
2023-03-27T22:39:52.359Z,1012.32
2023-03-27T22:50:53.923Z,1012.32
2023-03-27T23:01:55.879Z,1012.32
2023-03-27T23:12:55.855Z,1012.32
2023-03-27T23:23:58.901Z,1012.32
2023-03-27T23:35:01.790Z,1012.32
2023-03-27T23:45:59.428Z,1012.32
2023-03-27T23:56:58.044Z,1012.32
